createdAt,value
2019-04-06T00:00:42.455Z,52.57
2019-04-06T00:03:14.540Z,52.63
2019-04-06T00:05:46.621Z,52.68
2019-04-06T00:08:18.619Z,52.70
2019-04-06T00:10:50.588Z,52.58
2019-04-06T00:13:22.649Z,52.65
2019-04-06T00:15:54.694Z,52.67
2019-04-06T00:18:26.786Z,52.78
2019-04-06T00:20:58.762Z,52.81
2019-04-06T00:23:31.149Z,53.13
2019-04-06T00:26:03.206Z,53.14
2019-04-06T00:28:35.283Z,53.34
2019-04-06T00:31:26.745Z,53.34
2019-04-06T00:33:59.027Z,53.42
2019-04-06T00:36:31.371Z,53.50
2019-04-06T00:39:05.087Z,53.53
2019-04-06T00:41:38.905Z,53.70
2019-04-06T00:44:11.282Z,53.86
2019-04-06T00:46:45.150Z,53.96
2019-04-06T00:49:17.198Z,54.03
2019-04-06T00:51:49.210Z,54.13
2019-04-06T00:54:21.193Z,54.29
2019-04-06T00:56:53.186Z,54.25
2019-04-06T00:59:25.158Z,54.53
2019-04-06T01:01:57.171Z,54.74
2019-04-06T01:04:29.145Z,54.82
2019-04-06T01:07:01.118Z,54.75
2019-04-06T01:09:33.105Z,54.60
2019-04-06T01:12:05.055Z,54.54
2019-04-06T01:14:37.082Z,54.62
2019-04-06T01:17:09.991Z,54.71
2019-04-06T01:19:41.941Z,54.77
2019-04-06T01:22:14.024Z,54.95
2019-04-06T01:24:45.973Z,54.69
2019-04-06T01:27:18.147Z,54.55
2019-04-06T01:29:50.425Z,54.40
2019-04-06T01:32:22.666Z,54.33
2019-04-06T01:34:54.629Z,54.28
2019-04-06T01:37:26.624Z,54.21
2019-04-06T01:39:58.615Z,54.13
2019-04-06T01:42:30.607Z,54.15
2019-04-06T01:45:02.565Z,54.25
2019-04-06T01:47:34.764Z,54.10
2019-04-06T01:50:07.501Z,54.02
2019-04-06T01:52:39.448Z,54.10
2019-04-06T01:55:11.626Z,54.06
2019-04-06T01:57:43.621Z,54.15
2019-04-06T02:00:16.107Z,53.93
2019-04-06T02:02:50.536Z,54.01
2019-04-06T02:05:22.498Z,53.98
2019-04-06T02:07:54.590Z,54.04
2019-04-06T02:10:26.641Z,53.82
2019-04-06T02:12:58.654Z,54.00
2019-04-06T02:15:31.029Z,53.95
2019-04-06T02:18:03.115Z,53.95
2019-04-06T02:20:35.471Z,54.10
2019-04-06T02:23:07.806Z,54.20
2019-04-06T02:25:40.346Z,54.17
2019-04-06T02:28:12.390Z,54.15
2019-04-06T02:30:55.025Z,54.18
2019-04-06T02:33:39.385Z,54.18
2019-04-06T02:36:45.837Z,54.22
2019-04-06T02:39:42.769Z,54.36
2019-04-06T02:42:21.221Z,54.39
2019-04-06T02:44:53.331Z,54.63
2019-04-06T02:47:25.427Z,54.64
2019-04-06T02:49:57.537Z,54.79
2019-04-06T02:52:29.752Z,54.61
2019-04-06T02:55:01.853Z,54.63
2019-04-06T02:57:33.832Z,54.53
2019-04-06T03:00:07.848Z,54.66
2019-04-06T03:02:40.422Z,54.42
2019-04-06T03:05:12.578Z,54.46
2019-04-06T03:07:44.627Z,54.48
2019-04-06T03:10:16.625Z,54.55
2019-04-06T03:12:48.732Z,54.54
2019-04-06T03:15:20.908Z,54.66
2019-04-06T03:17:52.953Z,54.83
2019-04-06T03:20:25.050Z,54.84
2019-04-06T03:22:57.001Z,54.82
2019-04-06T03:25:29.175Z,54.91
2019-04-06T03:28:01.342Z,55.04
2019-04-06T03:30:33.315Z,55.16
2019-04-06T03:33:05.282Z,55.21
2019-04-06T03:35:37.746Z,55.32
2019-04-06T03:38:10.515Z,55.44
2019-04-06T03:40:42.581Z,55.58
2019-04-06T03:43:14.617Z,55.65
2019-04-06T03:45:46.592Z,55.80
2019-04-06T03:48:18.574Z,55.81
2019-04-06T03:50:50.665Z,55.91
2019-04-06T03:53:22.801Z,56.01
2019-04-06T03:55:54.910Z,55.96
2019-04-06T03:58:26.979Z,56.02
2019-04-06T04:00:58.986Z,55.95
2019-04-06T04:03:31.083Z,55.93
2019-04-06T04:06:03.210Z,55.82
2019-04-06T04:08:35.199Z,55.92
2019-04-06T04:11:07.143Z,55.95
2019-04-06T04:13:39.135Z,56.02
2019-04-06T04:16:11.245Z,56.13
2019-04-06T04:18:43.233Z,56.31
2019-04-06T04:21:15.175Z,56.35
2019-04-06T04:23:47.215Z,56.35
2019-04-06T04:26:19.194Z,56.38
2019-04-06T04:28:51.260Z,56.28
2019-04-06T04:31:23.223Z,56.27
2019-04-06T04:33:55.312Z,56.31
2019-04-06T04:36:27.295Z,56.29
2019-04-06T04:38:59.300Z,56.21
2019-04-06T04:41:31.319Z,56.24
2019-04-06T04:44:03.369Z,56.18
2019-04-06T04:46:35.319Z,56.17
2019-04-06T04:49:07.283Z,56.27
2019-04-06T04:51:39.294Z,56.37
2019-04-06T04:54:12.246Z,56.18
2019-04-06T04:56:44.188Z,56.14
2019-04-06T04:59:16.167Z,56.02
2019-04-06T05:01:48.218Z,55.88
2019-04-06T05:04:20.609Z,55.72
2019-04-06T05:06:52.871Z,55.50
2019-04-06T05:09:24.956Z,55.67
2019-04-06T05:11:56.965Z,55.63
2019-04-06T05:15:00.827Z,55.65
2019-04-06T05:17:32.801Z,55.55
2019-04-06T05:20:05.622Z,55.62
2019-04-06T05:22:37.753Z,55.48
2019-04-06T05:25:10.105Z,55.47
2019-04-06T05:27:51.268Z,55.24
2019-04-06T05:30:16.461Z,55.11
2019-04-06T05:32:48.494Z,55.10
2019-04-06T05:35:20.755Z,55.25
2019-04-06T05:37:52.832Z,55.09
2019-04-06T05:40:24.972Z,54.94
2019-04-06T05:42:57.004Z,54.96
2019-04-06T05:45:29.197Z,54.63
2019-04-06T05:48:01.434Z,54.82
2019-04-06T05:50:33.405Z,55.13
2019-04-06T05:53:05.708Z,55.15
2019-04-06T05:55:37.654Z,55.47
2019-04-06T05:58:10.848Z,55.73
2019-04-06T06:00:43.411Z,55.74
2019-04-06T06:03:15.590Z,55.78
2019-04-06T06:05:47.661Z,55.61
2019-04-06T06:08:20.306Z,55.34
2019-04-06T06:10:52.487Z,54.88
2019-04-06T06:13:24.483Z,54.61
2019-04-06T06:15:56.513Z,54.54
2019-04-06T06:18:28.546Z,54.76
2019-04-06T06:21:01.062Z,54.60
2019-04-06T06:23:33.193Z,54.69
2019-04-06T06:26:05.438Z,54.64
2019-04-06T06:28:37.667Z,54.63
2019-04-06T06:31:10.473Z,55.11
2019-04-06T06:33:42.439Z,55.16
2019-04-06T06:36:14.533Z,55.24
2019-04-06T06:38:46.625Z,55.42
2019-04-06T06:41:18.734Z,54.77
2019-04-06T06:43:50.761Z,54.13
2019-04-06T06:46:22.865Z,54.10
2019-04-06T06:48:54.943Z,53.07
2019-04-06T06:51:27.031Z,52.75
2019-04-06T06:54:00.817Z,52.04
2019-04-06T06:56:32.858Z,51.20
2019-04-06T06:59:04.953Z,50.07
2019-04-06T07:01:37.036Z,48.34
2019-04-06T07:04:09.311Z,46.70
2019-04-06T07:06:43.916Z,45.01
2019-04-06T07:09:15.947Z,44.38
2019-04-06T07:11:48.543Z,44.05
2019-04-06T07:14:20.512Z,43.48
2019-04-06T07:16:52.580Z,42.94
2019-04-06T07:19:24.537Z,43.71
2019-04-06T07:21:56.557Z,44.58
2019-04-06T07:24:28.511Z,45.46
2019-04-06T07:27:00.550Z,46.18
2019-04-06T07:29:32.556Z,46.62
2019-04-06T07:32:04.536Z,46.77
2019-04-06T07:34:36.546Z,48.38
2019-04-06T07:37:08.799Z,49.07
2019-04-06T07:39:41.196Z,49.50
2019-04-06T07:42:13.179Z,49.09
2019-04-06T07:44:45.213Z,48.08
2019-04-06T07:47:17.227Z,47.32
2019-04-06T07:49:49.167Z,46.02
2019-04-06T07:52:21.338Z,44.53
2019-04-06T07:54:53.354Z,43.83
2019-04-06T07:57:25.445Z,42.45
2019-04-06T07:59:57.451Z,39.79
2019-04-06T08:02:29.499Z,37.02
2019-04-06T08:05:01.519Z,35.88
2019-04-06T08:07:33.470Z,35.70
2019-04-06T08:10:06.064Z,35.97
2019-04-06T08:12:38.089Z,35.71
2019-04-06T08:15:11.052Z,35.58
2019-04-06T08:17:44.090Z,34.99
2019-04-06T08:20:17.595Z,34.49
2019-04-06T08:22:49.909Z,35.69
2019-04-06T08:25:21.918Z,36.62
2019-04-06T08:27:54.063Z,36.31
2019-04-06T08:30:26.276Z,35.40
2019-04-06T08:32:58.715Z,35.11
2019-04-06T08:35:31.089Z,34.41
2019-04-06T08:38:03.179Z,33.40
2019-04-06T08:40:35.416Z,33.80
2019-04-06T08:43:07.516Z,34.05
2019-04-06T08:45:39.554Z,34.11
2019-04-06T08:48:12.518Z,34.02
2019-04-06T08:50:44.771Z,34.52
2019-04-06T08:53:16.854Z,34.39
2019-04-06T08:55:48.942Z,32.18
2019-04-06T08:58:21.503Z,27.33
2019-04-06T09:00:53.705Z,20.65
2019-04-06T09:03:25.894Z,22.76
2019-04-06T09:05:57.945Z,24.60
2019-04-06T09:08:30.530Z,24.46
2019-04-06T09:11:02.656Z,24.60
2019-04-06T09:13:34.665Z,24.65
2019-04-06T09:16:06.770Z,24.31
2019-04-06T09:18:38.762Z,23.28
2019-04-06T09:21:11.165Z,21.92
2019-04-06T09:23:43.255Z,19.90
2019-04-06T09:26:15.297Z,18.31
2019-04-06T09:28:47.399Z,15.61
2019-04-06T09:31:19.481Z,13.90
2019-04-06T09:33:51.457Z,11.83
2019-04-06T09:36:23.592Z,9.92
2019-04-06T09:38:56.313Z,7.66
2019-04-06T09:41:29.916Z,6.96
2019-04-06T09:44:02.006Z,5.63
2019-04-06T09:46:41.865Z,5.89
2019-04-06T09:49:32.686Z,7.33
2019-04-06T09:52:22.401Z,7.99
2019-04-06T09:55:13.235Z,10.10
2019-04-06T09:57:58.615Z,13.99
2019-04-06T10:00:43.306Z,16.34
2019-04-06T10:03:34.399Z,15.63
2019-04-06T10:06:16.792Z,14.68
2019-04-06T10:09:26.162Z,14.66
2019-04-06T10:12:17.829Z,15.21
2019-04-06T10:15:03.565Z,15.34
2019-04-06T10:17:54.763Z,15.70
2019-04-06T10:20:53.427Z,16.13
2019-04-06T10:24:02.445Z,15.98
2019-04-06T10:26:56.253Z,14.73
2019-04-06T10:29:58.765Z,14.22
2019-04-06T10:32:37.159Z,13.50
2019-04-06T10:35:21.034Z,12.41
2019-04-06T10:38:14.075Z,12.80
2019-04-06T10:41:08.133Z,13.66
2019-04-06T10:44:08.650Z,14.29
2019-04-06T10:46:58.635Z,13.77
2019-04-06T10:50:07.608Z,13.32
2019-04-06T10:53:02.192Z,14.90
2019-04-06T10:55:57.595Z,15.85
2019-04-06T10:58:54.923Z,15.88
2019-04-06T11:01:49.058Z,15.24
2019-04-06T11:04:34.970Z,15.28
2019-04-06T11:07:24.617Z,16.27
2019-04-06T11:10:24.387Z,16.81
2019-04-06T11:13:13.726Z,17.07
2019-04-06T11:15:53.586Z,17.96
2019-04-06T11:18:42.980Z,18.90
2019-04-06T11:21:33.814Z,19.77
2019-04-06T11:24:23.489Z,20.19
2019-04-06T11:27:11.896Z,19.69
2019-04-06T11:30:13.112Z,18.37
2019-04-06T11:33:07.174Z,17.75
2019-04-06T11:35:54.098Z,18.07
2019-04-06T11:38:45.081Z,18.64
2019-04-06T11:41:28.153Z,19.53
2019-04-06T11:44:07.793Z,20.77
2019-04-06T11:46:57.444Z,21.99
2019-04-06T11:49:44.349Z,22.85
2019-04-06T11:52:34.034Z,24.04
2019-04-06T11:55:18.901Z,25.60
2019-04-06T11:58:10.325Z,26.95
2019-04-06T12:01:03.929Z,28.22
2019-04-06T12:03:54.757Z,29.17
2019-04-06T12:06:37.191Z,29.46
2019-04-06T12:09:28.243Z,30.04
2019-04-06T12:12:18.555Z,30.48
2019-04-06T12:15:04.930Z,30.86
2019-04-06T12:17:45.548Z,31.13
2019-04-06T12:20:34.596Z,31.74
2019-04-06T12:23:24.079Z,32.53
2019-04-06T12:26:09.445Z,33.19
2019-04-06T12:28:50.402Z,34.05
2019-04-06T12:31:44.692Z,35.79
2019-04-06T12:34:27.374Z,38.19
2019-04-06T12:37:24.771Z,40.77
2019-04-06T12:40:15.323Z,43.14
2019-04-06T12:43:18.149Z,44.52
2019-04-06T12:46:12.478Z,46.60
2019-04-06T12:49:03.389Z,49.34
2019-04-06T12:51:57.317Z,52.00
2019-04-06T12:54:57.845Z,54.39
2019-04-06T12:57:49.573Z,58.08
2019-04-06T13:00:49.303Z,63.01
2019-04-06T13:03:31.343Z,68.04
2019-04-06T13:06:37.849Z,70.66
2019-04-06T13:09:44.504Z,71.88
2019-04-06T13:12:44.537Z,73.63
2019-04-06T13:15:38.689Z,74.64
2019-04-06T13:18:27.058Z,75.38
2019-04-06T13:21:25.265Z,76.26
2019-04-06T13:24:08.031Z,76.63
2019-04-06T13:26:56.755Z,76.71
2019-04-06T13:29:42.302Z,75.70
2019-04-06T13:32:36.521Z,74.63
2019-04-06T13:35:14.051Z,74.70
2019-04-06T13:37:59.743Z,74.41
2019-04-06T13:40:50.531Z,74.39
2019-04-06T13:43:41.510Z,73.89
2019-04-06T13:46:28.594Z,73.84
2019-04-06T13:49:26.541Z,73.71
2019-04-06T13:52:17.382Z,74.23
2019-04-06T13:55:08.503Z,73.97
2019-04-06T13:58:02.903Z,74.18
2019-04-06T14:01:13.771Z,74.89
2019-04-06T14:03:54.138Z,75.49
2019-04-06T14:06:51.364Z,76.28
2019-04-06T14:09:48.292Z,76.72
2019-04-06T14:12:38.361Z,76.57
2019-04-06T14:15:47.947Z,76.76
2019-04-06T14:18:41.919Z,77.10
2019-04-06T14:21:31.402Z,77.01
2019-04-06T14:24:28.491Z,77.23
2019-04-06T14:27:20.010Z,77.28
2019-04-06T14:30:22.797Z,77.28
2019-04-06T14:33:12.228Z,77.32
2019-04-06T14:36:04.489Z,77.27
2019-04-06T14:38:57.958Z,76.40
2019-04-06T14:41:47.742Z,76.29
2019-04-06T14:44:31.842Z,76.14
2019-04-06T14:47:31.923Z,75.88
2019-04-06T14:50:24.226Z,75.26
2019-04-06T14:53:18.234Z,74.72
2019-04-06T14:56:21.493Z,74.34
2019-04-06T14:59:24.707Z,74.39
2019-04-06T15:02:14.176Z,74.35
2019-04-06T15:05:14.430Z,74.35
2019-04-06T15:08:05.629Z,74.34
2019-04-06T15:11:05.379Z,74.41
2019-04-06T15:13:56.318Z,74.64
2019-04-06T15:16:47.559Z,74.44
2019-04-06T15:19:41.759Z,74.42
2019-04-06T15:22:31.526Z,74.32
2019-04-06T15:25:12.553Z,74.27
2019-04-06T15:28:03.377Z,74.34
2019-04-06T15:30:42.518Z,74.35
2019-04-06T15:33:26.904Z,74.44
2019-04-06T15:36:24.396Z,74.54
2019-04-06T15:39:15.281Z,74.66
2019-04-06T15:42:15.153Z,74.67
2019-04-06T15:45:12.315Z,74.58
2019-04-06T15:48:15.525Z,74.41
2019-04-06T15:51:09.569Z,74.39
2019-04-06T15:54:06.548Z,74.01
2019-04-06T15:56:46.303Z,73.73
2019-04-06T15:59:24.631Z,73.53
2019-04-06T16:02:33.981Z,74.00
2019-04-06T16:05:16.883Z,74.31
2019-04-06T16:07:59.549Z,73.67
2019-04-06T16:10:50.359Z,74.38
2019-04-06T16:13:56.900Z,74.54
2019-04-06T16:16:50.818Z,74.68
2019-04-06T16:19:50.857Z,74.85
2019-04-06T16:22:38.376Z,75.51
2019-04-06T16:25:36.225Z,75.71
2019-04-06T16:28:45.481Z,76.92
2019-04-06T16:31:36.509Z,77.39
2019-04-06T16:34:30.048Z,77.94
2019-04-06T16:37:18.527Z,78.39
2019-04-06T16:40:03.219Z,79.55
2019-04-06T16:42:56.881Z,80.26
2019-04-06T16:45:54.981Z,82.03
2019-04-06T16:48:42.510Z,82.54
2019-04-06T16:51:31.805Z,83.17
2019-04-06T16:54:23.253Z,83.89
2019-04-06T16:57:12.935Z,84.32
2019-04-06T16:59:54.249Z,84.37
2019-04-06T17:02:44.777Z,84.52
2019-04-06T17:05:36.172Z,84.83
2019-04-06T17:08:27.107Z,84.85
2019-04-06T17:11:26.947Z,84.63
2019-04-06T17:14:11.538Z,83.89
2019-04-06T17:17:05.167Z,83.73
2019-04-06T17:19:56.243Z,83.83
2019-04-06T17:22:37.176Z,84.04
2019-04-06T17:25:28.229Z,84.04
2019-04-06T17:28:14.672Z,85.24
2019-04-06T17:31:11.807Z,85.74
2019-04-06T17:33:51.808Z,86.96
2019-04-06T17:36:42.871Z,88.17
2019-04-06T17:39:37.026Z,89.00
2019-04-06T17:42:18.923Z,90.08
2019-04-06T17:45:08.877Z,90.39
2019-04-06T17:47:58.952Z,90.91
2019-04-06T17:50:42.593Z,90.69
2019-04-06T17:53:41.158Z,90.35
2019-04-06T17:56:31.975Z,90.49
2019-04-06T17:59:21.547Z,90.55
2019-04-06T18:02:21.444Z,90.66
2019-04-06T18:05:15.244Z,90.47
2019-04-06T18:08:09.096Z,90.49
2019-04-06T18:10:57.171Z,90.62
2019-04-06T18:13:49.825Z,90.93
2019-04-06T18:16:25.448Z,90.70
2019-04-06T18:18:57.740Z,90.68
2019-04-06T18:21:30.270Z,90.70
2019-04-06T18:24:02.285Z,90.57
2019-04-06T18:26:34.310Z,90.46
2019-04-06T18:29:06.467Z,90.47
2019-04-06T18:31:57.525Z,89.75
2019-04-06T18:34:29.596Z,89.91
2019-04-06T18:37:20.522Z,89.68
2019-04-06T18:39:53.754Z,89.99
2019-04-06T18:42:26.106Z,89.89
2019-04-06T18:44:58.119Z,90.05
2019-04-06T18:47:30.476Z,90.01
2019-04-06T18:50:02.711Z,90.00
2019-04-06T18:52:35.022Z,90.16
2019-04-06T18:55:07.850Z,90.02
2019-04-06T18:57:40.277Z,89.71
2019-04-06T19:00:13.422Z,88.37
2019-04-06T19:02:46.169Z,88.84
2019-04-06T19:05:18.638Z,89.30
2019-04-06T19:07:50.906Z,89.45
2019-04-06T19:10:23.232Z,88.11
2019-04-06T19:12:55.398Z,88.45
2019-04-06T19:15:27.536Z,87.55
2019-04-06T19:18:00.156Z,88.24
2019-04-06T19:20:32.338Z,87.85
2019-04-06T19:23:04.753Z,87.70
2019-04-06T19:25:37.889Z,88.27
2019-04-06T19:28:10.941Z,89.20
2019-04-06T19:30:44.427Z,88.58
2019-04-06T19:33:23.338Z,88.34
2019-04-06T19:35:50.675Z,88.63
2019-04-06T19:38:22.732Z,88.74
2019-04-06T19:40:55.209Z,88.94
2019-04-06T19:43:27.768Z,88.97
2019-04-06T19:46:00.021Z,88.96
2019-04-06T19:48:33.872Z,88.88
2019-04-06T19:51:06.186Z,88.82
2019-04-06T19:53:39.063Z,89.08
2019-04-06T19:56:11.225Z,89.10
2019-04-06T19:58:43.811Z,88.97
2019-04-06T20:01:15.989Z,89.01
2019-04-06T20:03:48.215Z,88.70
2019-04-06T20:06:20.562Z,88.79
2019-04-06T20:08:52.854Z,88.64
2019-04-06T20:11:25.555Z,88.50
2019-04-06T20:13:57.643Z,88.52
2019-04-06T20:16:29.613Z,88.87
2019-04-06T20:19:01.644Z,89.03
2019-04-06T20:21:34.112Z,89.24
2019-04-06T20:24:06.846Z,89.46
2019-04-06T20:26:39.886Z,89.53
2019-04-06T20:29:12.683Z,89.61
2019-04-06T20:31:44.897Z,89.39
2019-04-06T20:34:16.865Z,88.75
2019-04-06T20:36:49.065Z,88.84
2019-04-06T20:39:21.102Z,88.52
2019-04-06T20:41:53.206Z,88.22
2019-04-06T20:44:25.178Z,87.68
2019-04-06T20:46:57.161Z,87.90
2019-04-06T20:49:29.116Z,88.31
2019-04-06T20:52:01.167Z,88.52
2019-04-06T20:54:33.239Z,88.84
2019-04-06T20:57:05.402Z,88.94
2019-04-06T20:59:37.516Z,89.29
2019-04-06T21:02:09.450Z,89.59
2019-04-06T21:04:41.422Z,89.91
2019-04-06T21:07:13.413Z,89.94
2019-04-06T21:09:45.399Z,90.03
2019-04-06T21:12:18.184Z,89.83
2019-04-06T21:14:52.814Z,89.72
2019-04-06T21:17:24.119Z,89.43
2019-04-06T21:19:56.134Z,88.91
2019-04-06T21:22:28.083Z,88.60
2019-04-06T21:25:00.572Z,88.25
2019-04-06T21:27:32.638Z,88.39
2019-04-06T21:30:05.452Z,88.66
2019-04-06T21:32:37.420Z,88.64
2019-04-06T21:35:09.497Z,88.68
2019-04-06T21:37:41.596Z,88.70
2019-04-06T21:40:15.902Z,88.41
2019-04-06T21:42:48.445Z,88.37
2019-04-06T21:45:20.730Z,88.25
2019-04-06T21:47:53.073Z,87.87
2019-04-06T21:50:25.640Z,87.61
2019-04-06T21:52:57.709Z,87.39
2019-04-06T21:55:30.058Z,86.83
2019-04-06T21:58:03.241Z,86.37
2019-04-06T22:00:52.419Z,86.61
2019-04-06T22:03:24.453Z,86.63
2019-04-06T22:05:56.757Z,86.83
2019-04-06T22:08:29.479Z,87.07
2019-04-06T22:11:01.822Z,87.26
2019-04-06T22:13:33.884Z,87.14
2019-04-06T22:16:06.287Z,86.62
2019-04-06T22:18:38.372Z,86.56
2019-04-06T22:21:10.618Z,86.62
2019-04-06T22:23:44.946Z,86.80
2019-04-06T22:26:17.074Z,86.98
2019-04-06T22:28:49.232Z,87.18
2019-04-06T22:31:21.363Z,87.44
2019-04-06T22:33:55.626Z,87.69
2019-04-06T22:36:27.716Z,87.72
2019-04-06T22:39:00.629Z,87.85
2019-04-06T22:41:32.773Z,87.89
2019-04-06T22:44:05.647Z,88.08
2019-04-06T22:46:38.087Z,88.25
2019-04-06T22:49:10.343Z,88.65
2019-04-06T22:51:43.497Z,89.02
2019-04-06T22:54:15.507Z,89.70
2019-04-06T22:56:47.447Z,90.03
2019-04-06T22:59:19.509Z,90.49
2019-04-06T23:01:51.708Z,90.62
2019-04-06T23:04:47.710Z,90.75
2019-04-06T23:07:16.782Z,90.74
2019-04-06T23:09:49.368Z,90.71
2019-04-06T23:12:21.337Z,90.76
2019-04-06T23:14:53.792Z,90.75
2019-04-06T23:17:26.098Z,90.76
2019-04-06T23:19:58.163Z,90.78
2019-04-06T23:22:30.392Z,90.82
2019-04-06T23:25:02.762Z,90.78
2019-04-06T23:27:35.354Z,90.70
2019-04-06T23:30:08.820Z,90.71
2019-04-06T23:32:41.154Z,90.75
2019-04-06T23:35:13.298Z,90.83
2019-04-06T23:37:45.839Z,90.74
2019-04-06T23:40:17.917Z,90.62
2019-04-06T23:42:50.479Z,90.46
2019-04-06T23:45:23.427Z,90.10
2019-04-06T23:47:55.900Z,89.62
2019-04-06T23:50:28.201Z,88.94
2019-04-06T23:53:00.722Z,88.69
2019-04-06T23:55:35.496Z,88.58
2019-04-06T23:58:07.538Z,88.70
